createdAt,value
2019-03-21T00:00:30.918Z,70.69
2019-03-21T00:03:20.851Z,71.10
2019-03-21T00:06:10.915Z,71.47
2019-03-21T00:09:00.360Z,71.59
2019-03-21T00:11:58.439Z,70.10
2019-03-21T00:14:50.727Z,68.96
2019-03-21T00:17:49.617Z,68.87
2019-03-21T00:20:39.621Z,70.12
2019-03-21T00:23:29.429Z,69.23
2019-03-21T00:26:19.735Z,69.93
2019-03-21T00:29:09.304Z,70.58
2019-03-21T00:31:58.968Z,70.72
2019-03-21T00:34:48.870Z,71.77
2019-03-21T00:37:38.459Z,71.74
2019-03-21T00:40:33.479Z,72.29
2019-03-21T00:43:23.086Z,72.56
2019-03-21T00:46:13.214Z,72.37
2019-03-21T00:49:03.360Z,72.52
2019-03-21T00:51:53.411Z,72.76
2019-03-21T00:54:44.772Z,72.37
2019-03-21T00:57:34.948Z,72.52
2019-03-21T01:00:31.051Z,73.39
2019-03-21T01:03:20.778Z,73.03
2019-03-21T01:06:11.013Z,73.83
2019-03-21T01:09:00.849Z,75.28
2019-03-21T01:11:52.396Z,75.37
2019-03-21T01:14:42.283Z,76.37
2019-03-21T01:17:31.213Z,77.11
2019-03-21T01:20:27.860Z,77.55
2019-03-21T01:23:17.025Z,78.18
2019-03-21T01:26:07.365Z,77.88
2019-03-21T01:28:57.281Z,76.94
2019-03-21T01:31:46.478Z,77.96
2019-03-21T01:34:36.588Z,77.05
2019-03-21T01:37:26.722Z,77.60
2019-03-21T01:40:19.279Z,77.64
2019-03-21T01:43:08.766Z,78.25
2019-03-21T01:45:58.071Z,78.28
2019-03-21T01:48:47.761Z,79.00
2019-03-21T01:51:37.420Z,78.96
2019-03-21T01:54:27.101Z,78.21
2019-03-21T01:57:16.821Z,78.47
2019-03-21T02:00:10.087Z,78.87
2019-03-21T02:03:00.112Z,78.34
2019-03-21T02:05:50.488Z,77.29
2019-03-21T02:08:40.315Z,76.37
2019-03-21T02:11:29.638Z,75.61
2019-03-21T02:14:19.933Z,76.04
2019-03-21T05:00:40.749Z,74.51
2019-03-21T05:07:02.177Z,76.37
2019-03-21T05:09:52.022Z,76.84
2019-03-21T05:12:42.024Z,77.13
2019-03-21T05:15:34.930Z,77.90
2019-03-21T05:18:28.604Z,78.47
2019-03-21T05:24:39.332Z,79.27
2019-03-21T05:27:28.208Z,79.47
2019-03-21T05:30:20.814Z,79.61
2019-03-21T05:33:09.940Z,78.14
2019-03-21T05:35:59.384Z,77.58
2019-03-21T05:38:49.964Z,76.08
2019-03-21T05:41:39.590Z,75.87
2019-03-21T05:44:33.578Z,74.94
2019-03-21T05:47:24.063Z,74.55
2019-03-21T05:53:43.272Z,74.49
2019-03-21T05:56:33.205Z,74.64
2019-03-21T05:59:23.000Z,74.76
2019-03-21T06:02:12.645Z,75.17
2019-03-21T06:05:02.770Z,75.48
2019-03-21T06:11:45.344Z,75.66
2019-03-21T06:14:35.872Z,77.27
2019-03-21T06:17:25.437Z,77.13
2019-03-21T06:20:26.130Z,76.80
2019-03-21T06:23:48.236Z,78.25
2019-03-21T06:27:02.092Z,78.33
2019-03-21T06:29:51.807Z,77.57
2019-03-21T06:32:41.168Z,77.87
2019-03-21T06:35:31.422Z,76.86
2019-03-21T06:38:21.319Z,76.18
2019-03-21T06:41:11.249Z,75.54
2019-03-21T06:44:00.913Z,75.05
2019-03-21T06:46:50.852Z,73.74
2019-03-21T06:49:40.837Z,73.22
2019-03-21T06:52:30.453Z,73.41
2019-03-21T06:55:20.117Z,73.35
2019-03-21T06:58:10.345Z,73.07
2019-03-21T07:01:01.172Z,72.31
2019-03-21T07:07:35.709Z,71.05
2019-03-21T07:17:00.681Z,69.51
2019-03-21T07:19:55.147Z,71.17
2019-03-21T07:22:45.012Z,75.01
2019-03-21T07:25:34.234Z,72.17
2019-03-21T07:28:24.238Z,72.75
2019-03-21T07:31:14.288Z,72.84
2019-03-21T07:34:04.451Z,72.92
2019-03-21T07:36:54.982Z,72.61
2019-03-21T07:39:44.654Z,72.31
2019-03-21T07:42:34.547Z,71.74
2019-03-21T07:45:24.330Z,71.90
2019-03-21T07:48:14.021Z,70.73
2019-03-21T07:51:03.413Z,70.86
2019-03-21T07:53:52.534Z,71.19
2019-03-21T07:56:42.287Z,70.59
2019-03-21T07:59:32.778Z,69.71
2019-03-21T08:02:22.084Z,69.40
2019-03-21T08:05:12.100Z,67.34
2019-03-21T08:08:01.993Z,68.10
2019-03-21T08:10:53.183Z,67.32
2019-03-21T08:13:43.285Z,65.94
2019-03-21T08:16:33.122Z,66.10
2019-03-21T08:19:22.419Z,63.91
2019-03-21T08:22:11.811Z,63.67
2019-03-21T08:25:01.864Z,62.25
2019-03-21T08:27:51.894Z,63.37
2019-03-21T08:31:29.682Z,62.32
2019-03-21T08:34:19.521Z,58.42
2019-03-21T08:37:09.493Z,59.16
2019-03-21T08:39:59.394Z,59.78
2019-03-21T08:42:48.789Z,60.39
2019-03-21T08:45:38.876Z,59.72
2019-03-21T08:48:39.585Z,58.37
2019-03-21T08:51:29.798Z,59.14
2019-03-21T09:01:22.338Z,60.35
2019-03-21T09:04:12.302Z,59.57
2019-03-21T09:07:01.983Z,59.73
2019-03-21T09:09:51.411Z,57.96
2019-03-21T09:12:42.613Z,58.92
2019-03-21T09:15:32.663Z,58.46
2019-03-21T09:18:21.844Z,54.70
2019-03-21T09:21:19.625Z,55.93
2019-03-21T09:24:03.872Z,57.74
2019-03-21T09:26:53.370Z,55.66
2019-03-21T09:29:53.121Z,54.90
2019-03-21T09:32:34.038Z,54.42
2019-03-21T09:35:24.206Z,55.29
2019-03-21T09:38:14.406Z,52.91
2019-03-21T09:41:03.572Z,43.85
2019-03-21T09:43:52.582Z,48.83
2019-03-21T09:46:50.919Z,49.52
2019-03-21T09:49:33.665Z,50.93
2019-03-21T09:52:22.835Z,49.90
2019-03-21T09:55:12.549Z,49.71
2019-03-21T09:58:02.020Z,50.26
2019-03-21T10:00:52.222Z,47.91
2019-03-21T10:03:41.176Z,46.50
2019-03-21T10:06:31.183Z,47.95
2019-03-21T10:09:20.937Z,46.01
2019-03-21T10:12:11.222Z,46.36
2019-03-21T10:15:00.404Z,46.52
2019-03-21T10:17:50.573Z,44.95
2019-03-21T10:20:39.391Z,44.62
2019-03-21T10:23:28.823Z,45.31
2019-03-21T10:26:18.083Z,42.76
2019-03-21T10:29:07.331Z,43.89
2019-03-21T10:31:56.701Z,42.98
2019-03-21T10:34:46.573Z,42.28
2019-03-21T10:37:36.524Z,43.77
2019-03-21T10:40:26.093Z,41.90
2019-03-21T10:43:15.447Z,40.71
2019-03-21T10:46:05.624Z,41.02
2019-03-21T10:48:55.873Z,38.48
2019-03-21T10:51:54.474Z,36.33
2019-03-21T10:54:36.181Z,37.93
2019-03-21T10:57:25.074Z,38.90
2019-03-21T11:00:14.850Z,32.83
2019-03-21T11:03:04.641Z,35.42
2019-03-21T11:05:54.128Z,33.74
2019-03-21T11:08:44.102Z,34.83
2019-03-21T11:11:34.039Z,33.11
2019-03-21T11:14:24.154Z,34.63
2019-03-21T11:17:14.771Z,33.09
2019-03-21T11:20:04.402Z,32.96
2019-03-21T11:22:55.810Z,33.54
2019-03-21T11:25:45.119Z,33.78
2019-03-21T11:28:34.241Z,32.92
2019-03-21T11:31:24.196Z,31.88
2019-03-21T11:34:14.588Z,33.81
2019-03-21T11:37:04.684Z,33.63
2019-03-21T11:39:54.630Z,33.71
2019-03-21T11:42:44.383Z,32.77
2019-03-21T11:45:34.310Z,32.70
2019-03-21T11:48:24.368Z,32.14
2019-03-21T11:51:13.551Z,32.11
2019-03-21T11:54:03.877Z,33.26
2019-03-21T11:56:54.036Z,30.83
2019-03-21T11:59:51.494Z,31.79
2019-03-21T12:02:34.308Z,30.41
2019-03-21T12:05:24.419Z,31.34
2019-03-21T12:08:13.799Z,30.40
2019-03-21T12:11:03.794Z,31.06
2019-03-21T12:13:53.972Z,31.16
2019-03-21T12:16:44.095Z,31.99
2019-03-21T12:19:34.197Z,31.01
2019-03-21T12:22:29.899Z,30.40
2019-03-21T12:25:15.609Z,30.90
2019-03-21T12:28:04.537Z,32.69
2019-03-21T12:30:53.737Z,31.55
2019-03-21T12:33:43.429Z,29.95
2019-03-21T12:36:34.644Z,31.13
2019-03-21T12:39:24.966Z,32.09
2019-03-21T12:42:15.125Z,32.27
2019-03-21T12:45:07.327Z,30.27
2019-03-21T12:47:57.614Z,30.95
2019-03-21T12:50:47.447Z,31.33
2019-03-21T12:53:37.752Z,30.78
2019-03-21T12:56:27.739Z,30.71
2019-03-21T12:59:17.363Z,31.36
2019-03-21T13:02:06.357Z,29.78
2019-03-21T13:04:56.953Z,31.42
2019-03-21T13:07:47.208Z,30.66
2019-03-21T13:10:37.187Z,29.58
2019-03-21T13:13:27.548Z,31.22
2019-03-21T13:16:16.710Z,30.62
2019-03-21T13:19:05.903Z,29.82
2019-03-21T13:21:55.947Z,31.59
2019-03-21T13:24:45.846Z,29.30
2019-03-21T13:27:35.970Z,29.27
2019-03-21T13:30:25.747Z,27.40
2019-03-21T13:33:15.082Z,28.21
2019-03-21T13:36:05.479Z,29.22
2019-03-21T13:38:55.621Z,28.86
2019-03-21T13:41:45.626Z,28.34
2019-03-21T13:44:35.003Z,27.71
2019-03-21T13:47:25.261Z,28.21
2019-03-21T13:50:14.940Z,27.73
2019-03-21T13:53:17.594Z,27.58
2019-03-21T13:55:56.513Z,27.29
2019-03-21T13:58:46.863Z,27.55
2019-03-21T14:01:37.220Z,27.33
2019-03-21T14:04:27.110Z,26.65
2019-03-21T14:07:16.602Z,26.60
2019-03-21T14:10:06.033Z,27.73
2019-03-21T14:12:56.013Z,30.06
2019-03-21T14:15:46.107Z,28.59
2019-03-21T14:18:36.393Z,29.78
2019-03-21T14:21:26.429Z,30.38
2019-03-21T14:24:15.902Z,30.32
2019-03-21T14:27:05.645Z,29.70
2019-03-21T14:30:01.251Z,30.13
2019-03-21T14:32:46.219Z,29.27
2019-03-21T14:35:36.102Z,30.31
2019-03-21T14:38:26.684Z,30.10
2019-03-21T14:41:16.189Z,30.03
2019-03-21T14:44:07.211Z,30.05
2019-03-21T14:46:56.530Z,30.67
2019-03-21T14:49:46.423Z,30.99
2019-03-21T14:52:36.345Z,29.03
2019-03-21T14:55:26.416Z,30.75
2019-03-21T14:58:16.290Z,29.02
2019-03-21T15:01:05.745Z,29.10
2019-03-21T15:03:55.618Z,29.66
2019-03-21T15:06:45.316Z,30.58
2019-03-21T15:09:34.619Z,29.17
2019-03-21T15:12:23.886Z,30.06
2019-03-21T15:15:14.058Z,29.70
2019-03-21T15:18:03.997Z,29.64
2019-03-21T15:20:55.602Z,29.84
2019-03-21T15:23:45.245Z,29.83
2019-03-21T15:26:35.427Z,30.14
2019-03-21T15:29:24.837Z,29.96
2019-03-21T15:32:14.379Z,29.89
2019-03-21T15:35:04.559Z,29.99
2019-03-21T15:37:54.817Z,29.83
2019-03-21T15:40:44.281Z,30.63
2019-03-21T15:43:34.201Z,29.83
2019-03-21T15:46:24.054Z,29.52
2019-03-21T15:49:15.362Z,29.97
2019-03-21T15:52:04.711Z,30.12
2019-03-21T15:54:54.978Z,30.71
2019-03-21T15:57:45.675Z,30.29
2019-03-21T16:00:39.289Z,31.36
2019-03-21T16:03:28.417Z,30.91
2019-03-21T16:06:18.448Z,31.63
2019-03-21T16:09:09.020Z,31.71
2019-03-21T16:11:58.633Z,31.78
2019-03-21T16:14:49.405Z,32.34
2019-03-21T16:17:38.366Z,31.31
2019-03-21T16:20:28.531Z,31.14
2019-03-21T16:23:18.861Z,31.41
2019-03-21T16:26:08.109Z,31.50
2019-03-21T16:28:58.254Z,32.95
2019-03-21T16:31:48.399Z,31.72
2019-03-21T16:34:38.034Z,32.11
2019-03-21T16:37:28.387Z,31.48
2019-03-21T16:40:18.912Z,33.66
2019-03-21T16:43:08.831Z,35.11
2019-03-21T16:45:59.044Z,33.33
2019-03-21T16:48:48.969Z,34.42
2019-03-21T16:51:39.037Z,36.60
2019-03-21T16:54:30.390Z,36.66
2019-03-21T16:57:20.397Z,36.00
2019-03-21T17:00:10.474Z,37.11
2019-03-21T17:03:02.122Z,38.13
2019-03-21T17:05:52.789Z,38.20
2019-03-21T17:08:42.405Z,36.65
2019-03-21T17:11:32.094Z,38.84
2019-03-21T17:14:22.027Z,40.08
2019-03-21T17:17:12.108Z,42.99
2019-03-21T17:20:03.768Z,42.99
2019-03-21T17:22:55.237Z,43.40
2019-03-21T17:25:45.036Z,45.73
2019-03-21T17:28:34.818Z,46.40
2019-03-21T17:31:24.569Z,46.14
2019-03-21T17:34:14.335Z,46.70
2019-03-21T17:37:04.430Z,48.14
2019-03-21T17:39:54.633Z,48.58
2019-03-21T17:42:45.257Z,51.41
2019-03-21T17:45:35.581Z,50.37
2019-03-21T17:48:25.861Z,51.30
2019-03-21T17:51:15.011Z,51.80
2019-03-21T17:54:03.991Z,53.03
2019-03-21T17:56:52.878Z,53.71
2019-03-21T17:59:42.910Z,53.44
2019-03-21T18:02:33.385Z,54.41
2019-03-21T18:05:23.479Z,55.53
2019-03-21T18:08:13.758Z,55.94
2019-03-21T18:11:02.874Z,56.61
2019-03-21T18:13:52.890Z,57.48
2019-03-21T18:16:41.984Z,58.63
2019-03-21T18:19:31.556Z,58.95
2019-03-21T18:22:21.476Z,60.35
2019-03-21T18:25:12.691Z,62.01
2019-03-21T18:28:02.804Z,61.82
2019-03-21T18:30:51.829Z,61.62
2019-03-21T18:33:41.189Z,60.79
2019-03-21T18:36:31.465Z,62.36
2019-03-21T18:39:21.417Z,63.71
2019-03-21T18:42:11.465Z,64.29
2019-03-21T18:45:00.608Z,64.60
2019-03-21T18:47:50.506Z,64.41
2019-03-21T18:50:40.353Z,64.65
2019-03-21T18:53:30.287Z,65.83
2019-03-21T18:56:19.704Z,66.11
2019-03-21T18:59:09.108Z,66.25
2019-03-21T19:01:59.180Z,65.88
2019-03-21T19:04:48.522Z,66.07
2019-03-21T19:07:38.281Z,66.58
2019-03-21T19:10:28.655Z,66.91
2019-03-21T19:13:18.742Z,67.33
2019-03-21T19:16:07.910Z,67.69
2019-03-21T19:18:57.596Z,68.23
2019-03-21T19:21:47.772Z,68.48
2019-03-21T19:24:37.473Z,66.73
2019-03-21T19:27:27.272Z,66.29
2019-03-21T19:30:16.617Z,66.58
2019-03-21T19:33:07.303Z,67.34
2019-03-21T19:35:57.188Z,68.37
2019-03-21T19:38:46.844Z,68.40
2019-03-21T19:41:36.765Z,68.03
2019-03-21T19:44:26.668Z,68.50
2019-03-21T19:47:23.854Z,69.32
2019-03-21T19:50:08.878Z,69.49
2019-03-21T19:52:58.625Z,70.00
2019-03-21T19:55:48.950Z,69.98
2019-03-21T19:58:38.203Z,69.14
2019-03-21T20:01:29.001Z,68.31
2019-03-21T20:04:18.788Z,68.51
2019-03-21T20:07:08.041Z,68.82
2019-03-21T20:09:56.972Z,69.28
2019-03-21T20:12:47.487Z,70.03
2019-03-21T20:15:36.850Z,70.45
2019-03-21T20:18:26.649Z,70.68
2019-03-21T20:21:16.948Z,70.61
2019-03-21T20:24:07.059Z,70.84
2019-03-21T20:26:57.326Z,70.41
2019-03-21T20:29:46.209Z,69.55
2019-03-21T20:32:36.270Z,69.46
2019-03-21T20:35:26.329Z,69.68
2019-03-21T20:38:16.262Z,69.86
2019-03-21T20:41:05.329Z,70.01
2019-03-21T20:43:55.088Z,69.95
2019-03-21T20:46:44.253Z,70.62
2019-03-21T20:49:33.534Z,70.70
2019-03-21T20:52:23.356Z,70.38
2019-03-21T20:55:13.669Z,70.69
2019-03-21T20:58:03.433Z,70.87
2019-03-21T21:00:53.397Z,71.28
2019-03-21T21:03:43.687Z,71.28
2019-03-21T21:06:33.616Z,71.55
2019-03-21T21:09:22.811Z,72.27
2019-03-21T21:12:12.801Z,72.29
2019-03-21T21:15:02.634Z,72.06
2019-03-21T21:17:52.562Z,72.80
2019-03-21T21:20:42.448Z,73.57
2019-03-21T21:23:31.960Z,73.32
2019-03-21T21:26:22.041Z,73.72
2019-03-21T21:29:12.259Z,73.41
2019-03-21T21:32:02.063Z,73.36
2019-03-21T21:34:54.476Z,72.13
2019-03-21T21:37:42.884Z,71.08
2019-03-21T21:40:34.403Z,69.54
2019-03-21T21:43:24.368Z,68.90
2019-03-21T21:46:14.061Z,69.67
2019-03-21T21:49:04.471Z,70.71
2019-03-21T21:51:54.044Z,70.59
2019-03-21T21:54:43.896Z,71.23
2019-03-21T21:57:34.489Z,72.21
2019-03-21T22:00:24.566Z,72.76
2019-03-21T22:03:14.417Z,73.33
2019-03-21T22:06:03.847Z,72.50
2019-03-21T22:08:53.052Z,72.35
2019-03-21T22:11:43.135Z,72.44
2019-03-21T22:14:32.605Z,71.62
2019-03-21T22:17:22.283Z,70.41
2019-03-21T22:20:12.305Z,69.50
2019-03-21T22:23:02.009Z,67.83
2019-03-21T22:25:51.347Z,67.10
2019-03-21T22:28:41.592Z,68.39
2019-03-21T22:31:31.581Z,68.27
2019-03-21T22:34:21.677Z,69.50
2019-03-21T22:37:10.776Z,70.00
2019-03-21T22:40:02.466Z,70.10
2019-03-21T22:42:51.385Z,69.78
2019-03-21T22:45:41.060Z,69.19
2019-03-21T22:48:31.189Z,68.98
2019-03-21T22:51:21.357Z,68.86
2019-03-21T22:54:11.217Z,69.30
2019-03-21T22:57:01.587Z,69.70
2019-03-21T22:59:51.484Z,68.93
2019-03-21T23:02:40.610Z,68.25
2019-03-21T23:05:30.569Z,69.21
2019-03-21T23:08:20.185Z,69.82
2019-03-21T23:11:09.748Z,69.54
2019-03-21T23:13:58.802Z,68.88
2019-03-21T23:16:48.381Z,69.09
2019-03-21T23:19:38.257Z,68.92
2019-03-21T23:22:27.450Z,67.88
2019-03-21T23:25:17.553Z,66.70
2019-03-21T23:28:07.370Z,66.55
2019-03-21T23:30:57.571Z,66.17
2019-03-21T23:33:47.778Z,66.40
2019-03-21T23:36:38.000Z,66.08
2019-03-21T23:39:28.162Z,65.85
2019-03-21T23:42:17.881Z,64.63
2019-03-21T23:45:07.253Z,63.93
2019-03-21T23:47:57.743Z,63.65
2019-03-21T23:50:48.082Z,63.72
2019-03-21T23:53:38.098Z,63.60
2019-03-21T23:56:28.092Z,63.26
2019-03-21T23:59:18.030Z,63.30
